sensor_id;sensor_type;location;lat;lon;timestamp;pressure;altitude;pressure_sealevel;temperature;humidity
46015;BME280;36844;51.898;-0.874;2023-04-19T00:01:43;101547.44;;;18.82;
46015;BME280;36844;51.898;-0.874;2023-04-19T00:04:08;101543.22;;;18.81;
46015;BME280;36844;51.898;-0.874;2023-04-19T00:06:33;101545.88;;;18.77;
46015;BME280;36844;51.898;-0.874;2023-04-19T00:08:59;101548.94;;;18.76;
46015;BME280;36844;51.898;-0.874;2023-04-19T00:11:24;101548.94;;;18.76;
46015;BME280;36844;51.898;-0.874;2023-04-19T00:13:49;101549.28;;;18.74;
46015;BME280;36844;51.898;-0.874;2023-04-19T00:16:15;101540.81;;;18.72;
46015;BME280;36844;51.898;-0.874;2023-04-19T00:18:40;101538.47;;;18.71;
46015;BME280;36844;51.898;-0.874;2023-04-19T00:21:06;101541.56;;;18.69;
46015;BME280;36844;51.898;-0.874;2023-04-19T00:23:32;101534.63;;;18.68;
46015;BME280;36844;51.898;-0.874;2023-04-19T00:25:57;101530.34;;;18.67;
46015;BME280;36844;51.898;-0.874;2023-04-19T00:28:23;101528.84;;;18.66;
46015;BME280;36844;51.898;-0.874;2023-04-19T00:30:48;101533.81;;;18.64;
46015;BME280;36844;51.898;-0.874;2023-04-19T00:33:13;101526.88;;;18.63;
46015;BME280;36844;51.898;-0.874;2023-04-19T00:35:39;101526.09;;;18.63;
46015;BME280;36844;51.898;-0.874;2023-04-19T00:38:05;101516.44;;;18.62;
46015;BME280;36844;51.898;-0.874;2023-04-19T00:40:31;101518.72;;;18.60;
46015;BME280;36844;51.898;-0.874;2023-04-19T00:42:56;101511.78;;;18.59;
46015;BME280;36844;51.898;-0.874;2023-04-19T00:45:21;101504.84;;;18.58;
46015;BME280;36844;51.898;-0.874;2023-04-19T00:47:46;101497.88;;;18.57;
46015;BME280;36844;51.898;-0.874;2023-04-19T00:50:11;101514.44;;;18.55;
46015;BME280;36844;51.898;-0.874;2023-04-19T00:52:37;101509.03;;;18.52;
46015;BME280;36844;51.898;-0.874;2023-04-19T00:55:03;101510.56;;;18.53;
46015;BME280;36844;51.898;-0.874;2023-04-19T00:57:29;101507.88;;;18.53;
46015;BME280;36844;51.898;-0.874;2023-04-19T00:59:54;101497.44;;;18.51;
46015;BME280;36844;51.898;-0.874;2023-04-19T01:02:20;101497.81;;;18.50;
46015;BME280;36844;51.898;-0.874;2023-04-19T01:04:46;101493.59;;;18.49;
46015;BME280;36844;51.898;-0.874;2023-04-19T01:07:11;101504.38;;;18.49;
46015;BME280;36844;51.898;-0.874;2023-04-19T01:09:40;101489.72;;;18.46;
46015;BME280;36844;51.898;-0.874;2023-04-19T01:12:05;101486.22;;;18.46;
46015;BME280;36844;51.898;-0.874;2023-04-19T01:14:31;101483.91;;;18.44;
46015;BME280;36844;51.898;-0.874;2023-04-19T01:16:56;101486.97;;;18.43;
46015;BME280;36844;51.898;-0.874;2023-04-19T01:19:21;101485.44;;;18.42;
46015;BME280;36844;51.898;-0.874;2023-04-19T01:21:47;101490.41;;;18.40;
46015;BME280;36844;51.898;-0.874;2023-04-19T01:24:12;101478.06;;;18.39;
46015;BME280;36844;51.898;-0.874;2023-04-19T01:26:38;101486.16;;;18.39;
46015;BME280;36844;51.898;-0.874;2023-04-19T01:29:03;101476.53;;;18.38;
46015;BME280;36844;51.898;-0.874;2023-04-19T01:31:28;101478.47;;;18.37;
46015;BME280;36844;51.898;-0.874;2023-04-19T01:33:53;101484.97;;;18.36;
46015;BME280;36844;51.898;-0.874;2023-04-19T01:36:18;101471.91;;;18.35;
46015;BME280;36844;51.898;-0.874;2023-04-19T01:38:44;101473.03;;;18.34;
46015;BME280;36844;51.898;-0.874;2023-04-19T01:41:11;101470.69;;;18.32;
46015;BME280;36844;51.898;-0.874;2023-04-19T01:43:36;101469.94;;;18.32;
46015;BME280;36844;51.898;-0.874;2023-04-19T01:46:02;101469.94;;;18.32;
46015;BME280;36844;51.898;-0.874;2023-04-19T01:48:27;101463.00;;;18.31;
46015;BME280;36844;51.898;-0.874;2023-04-19T01:50:52;101457.94;;;18.29;
46015;BME280;36844;51.898;-0.874;2023-04-19T01:53:17;101459.88;;;18.29;
46015;BME280;36844;51.898;-0.874;2023-04-19T01:55:43;101460.28;;;18.27;
46015;BME280;36844;51.898;-0.874;2023-04-19T01:58:08;101453.31;;;18.26;
46015;BME280;36844;51.898;-0.874;2023-04-19T02:00:33;101452.53;;;18.26;
46015;BME280;36844;51.898;-0.874;2023-04-19T02:02:59;101456.34;;;18.25;
46015;BME280;36844;51.898;-0.874;2023-04-19T02:05:24;101458.31;;;18.24;
46015;BME280;36844;51.898;-0.874;2023-04-19T02:07:49;101465.63;;;18.24;
46015;BME280;36844;51.898;-0.874;2023-04-19T02:10:15;101453.28;;;18.23;
46015;BME280;36844;51.898;-0.874;2023-04-19T02:12:40;101455.19;;;18.22;
46015;BME280;36844;51.898;-0.874;2023-04-19T02:15:05;101457.09;;;18.22;
46015;BME280;36844;51.898;-0.874;2023-04-19T02:17:31;101450.16;;;18.21;
46015;BME280;36844;51.898;-0.874;2023-04-19T02:19:56;101450.16;;;18.21;
46015;BME280;36844;51.898;-0.874;2023-04-19T02:22:21;101450.56;;;18.19;
46015;BME280;36844;51.898;-0.874;2023-04-19T02:24:48;101449.00;;;18.18;
46015;BME280;36844;51.898;-0.874;2023-04-19T02:27:13;101445.50;;;18.18;
46015;BME280;36844;51.898;-0.874;2023-04-19T02:29:38;101445.50;;;18.18;
46015;BME280;36844;51.898;-0.874;2023-04-19T02:32:04;101442.44;;;18.16;
46015;BME280;36844;51.898;-0.874;2023-04-19T02:34:31;101441.66;;;18.15;
46015;BME280;36844;51.898;-0.874;2023-04-19T02:36:56;101435.84;;;18.13;
46015;BME280;36844;51.898;-0.874;2023-04-19T02:39:21;101442.00;;;18.14;
46015;BME280;36844;51.898;-0.874;2023-04-19T02:41:47;101437.81;;;18.13;
46015;BME280;36844;51.898;-0.874;2023-04-19T02:44:12;101451.28;;;18.13;
46015;BME280;36844;51.898;-0.874;2023-04-19T02:46:37;101446.22;;;18.11;
46015;BME280;36844;51.898;-0.874;2023-04-19T02:49:02;101445.44;;;18.11;
46015;BME280;36844;51.898;-0.874;2023-04-19T02:51:27;101442.38;;;18.09;
46015;BME280;36844;51.898;-0.874;2023-04-19T02:53:53;101434.28;;;18.09;
46015;BME280;36844;51.898;-0.874;2023-04-19T02:56:18;101438.13;;;18.08;
46015;BME280;36844;51.898;-0.874;2023-04-19T02:58:44;101435.78;;;18.06;
46015;BME280;36844;51.898;-0.874;2023-04-19T03:01:09;101436.56;;;18.07;
46015;BME280;36844;51.898;-0.874;2023-04-19T03:03:34;101435.00;;;18.06;
46015;BME280;36844;51.898;-0.874;2023-04-19T03:05:59;101436.94;;;18.05;
46015;BME280;36844;51.898;-0.874;2023-04-19T03:08:25;101440.00;;;18.04;
46015;BME280;36844;51.898;-0.874;2023-04-19T03:10:50;101436.53;;;18.03;
46015;BME280;36844;51.898;-0.874;2023-04-19T03:13:15;101434.97;;;18.02;
46015;BME280;36844;51.898;-0.874;2023-04-19T03:15:40;101439.59;;;18.02;
46015;BME280;36844;51.898;-0.874;2023-04-19T03:18:06;101436.16;;;18.01;
46015;BME280;36844;51.898;-0.874;2023-04-19T03:20:31;101435.34;;;18.01;
46015;BME280;36844;51.898;-0.874;2023-04-19T03:22:56;101433.78;;;18.00;
46015;BME280;36844;51.898;-0.874;2023-04-19T03:25:21;101427.63;;;17.99;
46015;BME280;36844;51.898;-0.874;2023-04-19T03:27:46;101438.41;;;17.99;
46015;BME280;36844;51.898;-0.874;2023-04-19T03:30:12;101427.25;;;17.97;
46015;BME280;36844;51.898;-0.874;2023-04-19T03:32:37;101432.63;;;17.97;
46015;BME280;36844;51.898;-0.874;2023-04-19T03:35:02;101437.25;;;17.97;
46015;BME280;36844;51.898;-0.874;2023-04-19T03:37:28;101433.75;;;17.96;
46015;BME280;36844;51.898;-0.874;2023-04-19T03:39:53;101439.53;;;17.95;
46015;BME280;36844;51.898;-0.874;2023-04-19T03:42:18;101438.75;;;17.94;
46015;BME280;36844;51.898;-0.874;2023-04-19T03:44:43;101436.03;;;17.94;
46015;BME280;36844;51.898;-0.874;2023-04-19T03:47:09;101431.81;;;17.93;
46015;BME280;36844;51.898;-0.874;2023-04-19T03:49:34;101430.25;;;17.92;
46015;BME280;36844;51.898;-0.874;2023-04-19T03:51:59;101443.72;;;17.92;
46015;BME280;36844;51.898;-0.874;2023-04-19T03:54:25;101440.28;;;17.92;
46015;BME280;36844;51.898;-0.874;2023-04-19T03:56:50;101436.00;;;17.91;
46015;BME280;36844;51.898;-0.874;2023-04-19T03:59:15;101434.47;;;17.90;
46015;BME280;36844;51.898;-0.874;2023-04-19T04:01:40;101442.56;;;17.90;
46015;BME280;36844;51.898;-0.874;2023-04-19T04:04:08;101438.31;;;17.89;
46015;BME280;36844;51.898;-0.874;2023-04-19T04:06:34;101436.78;;;17.88;
46015;BME280;36844;51.898;-0.874;2023-04-19T04:08:59;101448.31;;;17.88;
46015;BME280;36844;51.898;-0.874;2023-04-19T04:11:24;101443.28;;;17.87;
46015;BME280;36844;51.898;-0.874;2023-04-19T04:13:50;101440.97;;;17.85;
46015;BME280;36844;51.898;-0.874;2023-04-19T04:16:15;101440.19;;;17.85;
46015;BME280;36844;51.898;-0.874;2023-04-19T04:18:40;101444.03;;;17.84;
46015;BME280;36844;51.898;-0.874;2023-04-19T04:21:05;101442.13;;;17.84;
46015;BME280;36844;51.898;-0.874;2023-04-19T04:23:31;101439.78;;;17.83;
46015;BME280;36844;51.898;-0.874;2023-04-19T04:25:58;101443.63;;;17.82;
46015;BME280;36844;51.898;-0.874;2023-04-19T04:28:27;101443.63;;;17.82;
46015;BME280;36844;51.898;-0.874;2023-04-19T04:30:53;101435.13;;;17.80;
46015;BME280;36844;51.898;-0.874;2023-04-19T04:33:21;101441.31;;;17.80;
46015;BME280;36844;51.898;-0.874;2023-04-19T04:35:46;101437.81;;;17.80;
46015;BME280;36844;51.898;-0.874;2023-04-19T04:38:11;101436.25;;;17.78;
46015;BME280;36844;51.898;-0.874;2023-04-19T04:40:37;101430.50;;;17.77;
46015;BME280;36844;51.898;-0.874;2023-04-19T04:43:02;101431.63;;;17.75;
46015;BME280;36844;51.898;-0.874;2023-04-19T04:45:29;101422.75;;;17.75;
46015;BME280;36844;51.898;-0.874;2023-04-19T04:47:54;101424.66;;;17.74;
46015;BME280;36844;51.898;-0.874;2023-04-19T04:50:19;101418.91;;;17.72;
46015;BME280;36844;51.898;-0.874;2023-04-19T04:52:45;101427.75;;;17.73;
46015;BME280;36844;51.898;-0.874;2023-04-19T04:55:10;101426.97;;;17.72;
46015;BME280;36844;51.898;-0.874;2023-04-19T04:57:35;101428.88;;;17.72;
46015;BME280;36844;51.898;-0.874;2023-04-19T05:00:00;101427.31;;;17.71;
46015;BME280;36844;51.898;-0.874;2023-04-19T05:02:26;101432.72;;;17.71;
46015;BME280;36844;51.898;-0.874;2023-04-19T05:04:51;101432.69;;;17.67;
46015;BME280;36844;51.898;-0.874;2023-04-19T05:07:16;101428.44;;;17.66;
46015;BME280;36844;51.898;-0.874;2023-04-19T05:09:41;101429.59;;;17.65;
46015;BME280;36844;51.898;-0.874;2023-04-19T05:12:06;101430.72;;;17.64;
46015;BME280;36844;51.898;-0.874;2023-04-19T05:14:32;101433.78;;;17.63;
46015;BME280;36844;51.898;-0.874;2023-04-19T05:16:57;101432.25;;;17.62;
46015;BME280;36844;51.898;-0.874;2023-04-19T05:19:22;101427.22;;;17.60;
46015;BME280;36844;51.898;-0.874;2023-04-19T05:21:47;101434.50;;;17.60;
46015;BME280;36844;51.898;-0.874;2023-04-19T05:24:12;101434.91;;;17.58;
46015;BME280;36844;51.898;-0.874;2023-04-19T05:26:38;101438.75;;;17.57;
46015;BME280;36844;51.898;-0.874;2023-04-19T05:29:03;101442.56;;;17.56;
46015;BME280;36844;51.898;-0.874;2023-04-19T05:31:28;101449.06;;;17.55;
46015;BME280;36844;51.898;-0.874;2023-04-19T05:33:53;101444.88;;;17.54;
46015;BME280;36844;51.898;-0.874;2023-04-19T05:36:18;101449.81;;;17.52;
46015;BME280;36844;51.898;-0.874;2023-04-19T05:38:44;101450.94;;;17.51;
46015;BME280;36844;51.898;-0.874;2023-04-19T05:41:09;101448.66;;;17.50;
46015;BME280;36844;51.898;-0.874;2023-04-19T05:43:35;101455.16;;;17.49;
46015;BME280;36844;51.898;-0.874;2023-04-19T05:46:00;101450.19;;;17.47;
46015;BME280;36844;51.898;-0.874;2023-04-19T05:48:26;101454.78;;;17.47;
46015;BME280;36844;51.898;-0.874;2023-04-19T05:50:51;101459.38;;;17.46;
46015;BME280;36844;51.898;-0.874;2023-04-19T05:53:18;101462.09;;;17.46;
46015;BME280;36844;51.898;-0.874;2023-04-19T05:55:44;101465.56;;;17.47;
46015;BME280;36844;51.898;-0.874;2023-04-19T05:58:09;101462.88;;;17.47;
46015;BME280;36844;51.898;-0.874;2023-04-19T06:00:34;101457.06;;;17.48;
46015;BME280;36844;51.898;-0.874;2023-04-19T06:03:01;101464.81;;;17.50;
46015;BME280;36844;51.898;-0.874;2023-04-19T06:05:26;101469.81;;;17.51;
46015;BME280;36844;51.898;-0.874;2023-04-19T06:07:51;101464.06;;;17.53;
46015;BME280;36844;51.898;-0.874;2023-04-19T06:10:20;101468.34;;;17.54;
46015;BME280;36844;51.898;-0.874;2023-04-19T06:12:45;101472.19;;;17.56;
46015;BME280;36844;51.898;-0.874;2023-04-19T06:15:10;101464.56;;;17.58;
46015;BME280;36844;51.898;-0.874;2023-04-19T06:17:36;101478.06;;;17.62;
46015;BME280;36844;51.898;-0.874;2023-04-19T06:20:01;101471.16;;;17.64;
46015;BME280;36844;51.898;-0.874;2023-04-19T06:22:29;101475.44;;;17.69;
46015;BME280;36844;51.898;-0.874;2023-04-19T06:24:55;101472.78;;;17.72;
46015;BME280;36844;51.898;-0.874;2023-04-19T06:27:20;101473.59;;;17.77;
46015;BME280;36844;51.898;-0.874;2023-04-19T06:29:45;101474.06;;;17.82;
46015;BME280;36844;51.898;-0.874;2023-04-19T06:32:11;101468.69;;;17.86;
46015;BME280;36844;51.898;-0.874;2023-04-19T06:34:36;101468.38;;;17.91;
46015;BME280;36844;51.898;-0.874;2023-04-19T06:37:01;101465.69;;;17.94;
46015;BME280;36844;51.898;-0.874;2023-04-19T06:39:26;101469.22;;;17.98;
46015;BME280;36844;51.898;-0.874;2023-04-19T06:41:52;101473.47;;;18.03;
46015;BME280;36844;51.898;-0.874;2023-04-19T06:44:17;101468.16;;;18.06;
46015;BME280;36844;51.898;-0.874;2023-04-19T06:46:43;101475.91;;;18.11;
46015;BME280;36844;51.898;-0.874;2023-04-19T06:49:08;101472.44;;;18.14;
46015;BME280;36844;51.898;-0.874;2023-04-19T06:51:33;101477.88;;;18.18;
46015;BME280;36844;51.898;-0.874;2023-04-19T06:53:59;101477.13;;;18.21;
46015;BME280;36844;51.898;-0.874;2023-04-19T06:59:06;101478.72;;;18.25;
46015;BME280;36844;51.898;-0.874;2023-04-19T07:01:31;101476.03;;;18.29;
46015;BME280;36844;51.898;-0.874;2023-04-19T07:03:56;101484.56;;;18.31;
46015;BME280;36844;51.898;-0.874;2023-04-19T07:06:21;101482.25;;;18.33;
46015;BME280;36844;51.898;-0.874;2023-04-19T07:08:46;101488.84;;;18.35;
46015;BME280;36844;51.898;-0.874;2023-04-19T07:11:12;101491.94;;;18.37;
46015;BME280;36844;51.898;-0.874;2023-04-19T07:13:37;101491.56;;;18.39;
46015;BME280;36844;51.898;-0.874;2023-04-19T07:16:03;101490.41;;;18.40;
46015;BME280;36844;51.898;-0.874;2023-04-19T07:18:28;101492.38;;;18.43;
46015;BME280;36844;51.898;-0.874;2023-04-19T07:20:53;101489.69;;;18.43;
46015;BME280;36844;51.898;-0.874;2023-04-19T07:23:18;101488.53;;;18.44;
46015;BME280;36844;51.898;-0.874;2023-04-19T07:25:43;101487.38;;;18.45;
46015;BME280;36844;51.898;-0.874;2023-04-19T07:28:09;101483.53;;;18.46;
46015;BME280;36844;51.898;-0.874;2023-04-19T07:30:34;101487.78;;;18.47;
46015;BME280;36844;51.898;-0.874;2023-04-19T07:33:00;101490.50;;;18.47;
46015;BME280;36844;51.898;-0.874;2023-04-19T07:35:28;101491.25;;;18.47;
46015;BME280;36844;51.898;-0.874;2023-04-19T07:37:53;101490.09;;;18.48;
46015;BME280;36844;51.898;-0.874;2023-04-19T07:40:18;101490.91;;;18.49;
46015;BME280;36844;51.898;-0.874;2023-04-19T07:42:43;101488.19;;;18.49;
46015;BME280;36844;51.898;-0.874;2023-04-19T07:45:09;101496.28;;;18.49;
46015;BME280;36844;51.898;-0.874;2023-04-19T07:47:34;101495.13;;;18.50;
46015;BME280;36844;51.898;-0.874;2023-04-19T07:50:00;101489.72;;;18.50;
46015;BME280;36844;51.898;-0.874;2023-04-19T07:52:25;101488.19;;;18.49;
46015;BME280;36844;51.898;-0.874;2023-04-19T07:54:50;101490.53;;;18.50;
46015;BME280;36844;51.898;-0.874;2023-04-19T07:57:15;101489.72;;;18.50;
46015;BME280;36844;51.898;-0.874;2023-04-19T07:59:41;101484.34;;;18.50;
46015;BME280;36844;51.898;-0.874;2023-04-19T08:02:06;101483.56;;;18.49;
46015;BME280;36844;51.898;-0.874;2023-04-19T08:04:32;101472.75;;;18.49;
46015;BME280;36844;51.898;-0.874;2023-04-19T08:06:57;101478.94;;;18.50;
46015;BME280;36844;51.898;-0.874;2023-04-19T08:09:23;101475.47;;;18.49;
46015;BME280;36844;51.898;-0.874;2023-04-19T08:11:48;101483.56;;;18.49;
46015;BME280;36844;51.898;-0.874;2023-04-19T08:14:13;101482.81;;;18.49;
46015;BME280;36844;51.898;-0.874;2023-04-19T08:16:39;101488.94;;;18.49;
46015;BME280;36844;51.898;-0.874;2023-04-19T08:19:04;101491.66;;;18.49;
46015;BME280;36844;51.898;-0.874;2023-04-19T08:21:29;101497.81;;;18.50;
46015;BME280;36844;51.898;-0.874;2023-04-19T08:23:55;101494.34;;;18.49;
46015;BME280;36844;51.898;-0.874;2023-04-19T08:26:20;101499.34;;;18.47;
46015;BME280;36844;51.898;-0.874;2023-04-19T08:28:46;101505.53;;;18.48;
46015;BME280;36844;51.898;-0.874;2023-04-19T08:31:12;101511.28;;;18.46;
46015;BME280;36844;51.898;-0.874;2023-04-19T08:33:37;101499.72;;;18.46;
46015;BME280;36844;51.898;-0.874;2023-04-19T08:36:02;101509.38;;;18.47;
46015;BME280;36844;51.898;-0.874;2023-04-19T08:38:27;101499.34;;;18.47;
46015;BME280;36844;51.898;-0.874;2023-04-19T08:40:53;101507.81;;;18.46;
46015;BME280;36844;51.898;-0.874;2023-04-19T08:43:23;101500.50;;;18.46;
46015;BME280;36844;51.898;-0.874;2023-04-19T08:45:49;101510.50;;;18.46;
46015;BME280;36844;51.898;-0.874;2023-04-19T08:48:14;101510.50;;;18.46;
46015;BME280;36844;51.898;-0.874;2023-04-19T08:50:43;101508.97;;;18.45;
46015;BME280;36844;51.898;-0.874;2023-04-19T08:53:10;101508.19;;;18.44;
46015;BME280;36844;51.898;-0.874;2023-04-19T08:55:36;101515.50;;;18.44;
46015;BME280;36844;51.898;-0.874;2023-04-19T08:58:02;101508.56;;;18.43;
46015;BME280;36844;51.898;-0.874;2023-04-19T09:00:28;101511.25;;;18.43;
46015;BME280;36844;51.898;-0.874;2023-04-19T09:02:53;101513.19;;;18.42;
46015;BME280;36844;51.898;-0.874;2023-04-19T09:05:19;101504.69;;;18.40;
46015;BME280;36844;51.898;-0.874;2023-04-19T09:07:45;101503.91;;;18.40;
46015;BME280;36844;51.898;-0.874;2023-04-19T09:10:11;101501.19;;;18.40;
46015;BME280;36844;51.898;-0.874;2023-04-19T09:12:37;101505.06;;;18.39;
46015;BME280;36844;51.898;-0.874;2023-04-19T09:15:03;101508.91;;;18.38;
46015;BME280;36844;51.898;-0.874;2023-04-19T09:17:29;101504.66;;;18.37;
46015;BME280;36844;51.898;-0.874;2023-04-19T09:19:55;101499.25;;;18.37;
46015;BME280;36844;51.898;-0.874;2023-04-19T09:22:20;101501.56;;;18.35;
46015;BME280;36844;51.898;-0.874;2023-04-19T09:24:45;101500.00;;;18.34;
46015;BME280;36844;51.898;-0.874;2023-04-19T09:27:11;101493.81;;;18.33;
46015;BME280;36844;51.898;-0.874;2023-04-19T09:29:37;101501.91;;;18.33;
46015;BME280;36844;51.898;-0.874;2023-04-19T09:32:02;101496.16;;;18.31;
46015;BME280;36844;51.898;-0.874;2023-04-19T09:34:28;101492.66;;;18.31;
46015;BME280;36844;51.898;-0.874;2023-04-19T09:36:54;101481.09;;;18.30;
46015;BME280;36844;51.898;-0.874;2023-04-19T09:39:27;101479.53;;;18.29;
46015;BME280;36844;51.898;-0.874;2023-04-19T09:41:53;101491.44;;;18.28;
46015;BME280;36844;51.898;-0.874;2023-04-19T09:44:19;101493.41;;;18.28;
46015;BME280;36844;51.898;-0.874;2023-04-19T09:46:44;101500.72;;;18.27;
46015;BME280;36844;51.898;-0.874;2023-04-19T09:51:39;101500.28;;;18.25;
46015;BME280;36844;51.898;-0.874;2023-04-19T09:54:05;101496.47;;;18.26;
46015;BME280;36844;51.898;-0.874;2023-04-19T09:56:30;101483.31;;;18.25;
46015;BME280;36844;51.898;-0.874;2023-04-19T09:58:55;101498.75;;;18.24;
46015;BME280;36844;51.898;-0.874;2023-04-19T10:01:20;101489.91;;;18.24;
46015;BME280;36844;51.898;-0.874;2023-04-19T10:03:47;101495.31;;;18.24;
46015;BME280;36844;51.898;-0.874;2023-04-19T10:06:14;101489.13;;;18.23;
46015;BME280;36844;51.898;-0.874;2023-04-19T10:08:40;101484.50;;;18.24;
46015;BME280;36844;51.898;-0.874;2023-04-19T10:11:05;101491.03;;;18.23;
46015;BME280;36844;51.898;-0.874;2023-04-19T10:13:31;101473.28;;;18.22;
46015;BME280;36844;51.898;-0.874;2023-04-19T10:15:56;101475.19;;;18.21;
46015;BME280;36844;51.898;-0.874;2023-04-19T10:18:21;101471.72;;;18.21;
46015;BME280;36844;51.898;-0.874;2023-04-19T10:21:00;101467.91;;;18.22;
46015;BME280;36844;51.898;-0.874;2023-04-19T10:23:27;101471.72;;;18.21;
46015;BME280;36844;51.898;-0.874;2023-04-19T10:25:56;101467.13;;;18.21;
46015;BME280;36844;51.898;-0.874;2023-04-19T10:28:22;101466.34;;;18.21;
46015;BME280;36844;51.898;-0.874;2023-04-19T10:31:00;101465.97;;;18.22;
46015;BME280;36844;51.898;-0.874;2023-04-19T10:33:27;101452.13;;;18.20;
46015;BME280;36844;51.898;-0.874;2023-04-19T10:35:59;101449.44;;;18.20;
46015;BME280;36844;51.898;-0.874;2023-04-19T10:38:35;101446.72;;;18.20;
46015;BME280;36844;51.898;-0.874;2023-04-19T10:41:00;101448.66;;;18.20;
46015;BME280;36844;51.898;-0.874;2023-04-19T10:43:31;101457.53;;;18.20;
46015;BME280;36844;51.898;-0.874;2023-04-19T10:45:58;101445.94;;;18.20;
46015;BME280;36844;51.898;-0.874;2023-04-19T10:51:00;101442.47;;;18.19;
46015;BME280;36844;51.898;-0.874;2023-04-19T10:56:55;101441.34;;;18.20;
46015;BME280;36844;51.898;-0.874;2023-04-19T10:59:10;101437.84;;;18.20;
46015;BME280;36844;51.898;-0.874;2023-04-19T11:04:03;101442.06;;;18.21;
46015;BME280;36844;51.898;-0.874;2023-04-19T11:06:29;101437.84;;;18.20;
46015;BME280;36844;51.898;-0.874;2023-04-19T11:08:54;101433.25;;;18.20;
46015;BME280;36844;51.898;-0.874;2023-04-19T11:11:20;101437.84;;;18.20;
46015;BME280;36844;51.898;-0.874;2023-04-19T11:13:46;101444.03;;;18.20;
46015;BME280;36844;51.898;-0.874;2023-04-19T11:16:11;101429.75;;;18.20;
46015;BME280;36844;51.898;-0.874;2023-04-19T11:18:37;101433.25;;;18.20;
46015;BME280;36844;51.898;-0.874;2023-04-19T11:21:02;101433.97;;;18.21;
46015;BME280;36844;51.898;-0.874;2023-04-19T11:23:27;101427.06;;;18.20;
46015;BME280;36844;51.898;-0.874;2023-04-19T11:25:53;101434.75;;;18.21;
46015;BME280;36844;51.898;-0.874;2023-04-19T11:28:19;101427.09;;;18.23;
46015;BME280;36844;51.898;-0.874;2023-04-19T11:30:45;101419.00;;;18.23;
46015;BME280;36844;51.898;-0.874;2023-04-19T11:33:11;101425.56;;;18.26;
46015;BME280;36844;51.898;-0.874;2023-04-19T11:35:37;101426.00;;;18.28;
46015;BME280;36844;51.898;-0.874;2023-04-19T11:38:02;101429.06;;;18.30;
46015;BME280;36844;51.898;-0.874;2023-04-19T11:40:29;101417.94;;;18.31;
46015;BME280;36844;51.898;-0.874;2023-04-19T11:42:55;101416.38;;;18.34;
46015;BME280;36844;51.898;-0.874;2023-04-19T11:45:25;101416.00;;;18.35;
46015;BME280;36844;51.898;-0.874;2023-04-19T11:47:51;101416.41;;;18.37;
46015;BME280;36844;51.898;-0.874;2023-04-19T11:53:10;101403.34;;;18.43;
46015;BME280;36844;51.898;-0.874;2023-04-19T11:55:35;101405.28;;;18.46;
46015;BME280;36844;51.898;-0.874;2023-04-19T11:58:01;101401.88;;;18.49;
46015;BME280;36844;51.898;-0.874;2023-04-19T12:00:27;101403.41;;;18.50;
46015;BME280;36844;51.898;-0.874;2023-04-19T12:02:53;101409.19;;;18.52;
46015;BME280;36844;51.898;-0.874;2023-04-19T12:05:18;101405.00;;;18.54;
46015;BME280;36844;51.898;-0.874;2023-04-19T12:07:57;101406.13;;;18.57;
46015;BME280;36844;51.898;-0.874;2023-04-19T12:10:22;101403.44;;;18.57;
46015;BME280;36844;51.898;-0.874;2023-04-19T12:12:47;101412.72;;;18.59;
46015;BME280;36844;51.898;-0.874;2023-04-19T12:15:12;101408.84;;;18.60;
46015;BME280;36844;51.898;-0.874;2023-04-19T12:17:54;101406.94;;;18.61;
46015;BME280;36844;51.898;-0.874;2023-04-19T12:22:54;101392.69;;;18.64;
46015;BME280;36844;51.898;-0.874;2023-04-19T12:25:19;101403.13;;;18.65;
46015;BME280;36844;51.898;-0.874;2023-04-19T12:27:44;101402.72;;;18.67;
46015;BME280;36844;51.898;-0.874;2023-04-19T12:30:10;101391.94;;;18.67;
46015;BME280;36844;51.898;-0.874;2023-04-19T12:32:35;101395.41;;;18.67;
46015;BME280;36844;51.898;-0.874;2023-04-19T12:35:00;101395.06;;;18.69;
46015;BME280;36844;51.898;-0.874;2023-04-19T12:37:25;101378.88;;;18.69;
46015;BME280;36844;51.898;-0.874;2023-04-19T12:39:51;101379.66;;;18.69;
46015;BME280;36844;51.898;-0.874;2023-04-19T12:42:16;101381.16;;;18.70;
46015;BME280;36844;51.898;-0.874;2023-04-19T12:44:41;101380.44;;;18.70;
46015;BME280;36844;51.898;-0.874;2023-04-19T12:47:07;101375.03;;;18.70;
46015;BME280;36844;51.898;-0.874;2023-04-19T12:49:32;101382.72;;;18.71;
46015;BME280;36844;51.898;-0.874;2023-04-19T12:51:58;101385.41;;;18.71;
46015;BME280;36844;51.898;-0.874;2023-04-19T12:54:23;101378.09;;;18.72;
46015;BME280;36844;51.898;-0.874;2023-04-19T12:56:48;101376.97;;;18.73;
46015;BME280;36844;51.898;-0.874;2023-04-19T12:59:13;101376.19;;;18.72;
46015;BME280;36844;51.898;-0.874;2023-04-19T13:01:39;101374.25;;;18.73;
46015;BME280;36844;51.898;-0.874;2023-04-19T13:04:04;101372.72;;;18.75;
46015;BME280;36844;51.898;-0.874;2023-04-19T13:06:31;101382.72;;;18.75;
46015;BME280;36844;51.898;-0.874;2023-04-19T13:08:56;101372.38;;;18.77;
46015;BME280;36844;51.898;-0.874;2023-04-19T13:11:22;101378.13;;;18.79;
46015;BME280;36844;51.898;-0.874;2023-04-19T13:13:47;101371.59;;;18.80;
46015;BME280;36844;51.898;-0.874;2023-04-19T13:16:13;101373.16;;;18.81;
46015;BME280;36844;51.898;-0.874;2023-04-19T13:18:38;101372.75;;;18.83;
46015;BME280;36844;51.898;-0.874;2023-04-19T13:21:03;101372.41;;;18.84;
46015;BME280;36844;51.898;-0.874;2023-04-19T13:23:28;101373.16;;;18.85;
46015;BME280;36844;51.898;-0.874;2023-04-19T13:25:53;101374.31;;;18.87;
46015;BME280;36844;51.898;-0.874;2023-04-19T13:28:19;101371.63;;;18.87;
46015;BME280;36844;51.898;-0.874;2023-04-19T13:30:44;101363.94;;;18.89;
46015;BME280;36844;51.898;-0.874;2023-04-19T13:33:09;101361.97;;;18.90;
46015;BME280;36844;51.898;-0.874;2023-04-19T13:35:34;101358.16;;;18.91;
46015;BME280;36844;51.898;-0.874;2023-04-19T13:38:00;101350.03;;;18.91;
46015;BME280;36844;51.898;-0.874;2023-04-19T13:40:25;101355.06;;;18.92;
46015;BME280;36844;51.898;-0.874;2023-04-19T13:42:50;101356.63;;;18.93;